Latest Weather Observations for Scherger

IDQ60801

Issued at 10:35 am EST Monday 24 November 2014 (issued every 30 minutes, with the page automatically refreshed every 10 minutes)

About weather observations | Map of weather stations | Latest weather observations for QLD | Other Formats
Station Details ID: 027075 Name: SCHERGER RAAF Lat: -12.62 Lon: 142.09 Height: 39.34 m
Data from the previous 72 hours. | See also: Recent months at Scherger
Date/Time
EST
Temp
°C
App
Temp
°C
Dew
Point
Rel
Hum
%
Delta-T
°C
Wind Press
QNH
hPa
Press
MSL
hPa
Rain
since 9 am
mm
Dir
 
Spd
km/h
Gust
km/h
Spd
kts
Gust
kts
24/10:30am 31.3 31.5 19.3 49 7.9 E 17 30 9 16 1010.9 1010.6 0.0
24/10:00am 30.4 31.0 19.4 51 7.2 E 15 24 8 13 1011.1 1010.8 0.0
24/09:30am 29.8 30.4 19.5 54 6.7 E 15 26 8 14 1011.4 1011.1 0.0
24/09:00am 28.8 30.2 20.3 60 5.6 E 13 20 7 11 1011.7 1011.4 0.0
24/08:30am 28.6 30.0 21.1 64 5.0 ESE 15 24 8 13 1011.7 1011.4 0.0
24/08:00am 26.9 28.4 20.5 68 4.2 SE 13 20 7 11 1012.0 1011.7 0.0
24/07:30am 26.4 29.0 20.5 70 3.9 SE 7 11 4 6 1011.5 1011.2 0.0
24/07:00am 25.3 27.7 20.1 73 3.4 SSE 7 13 4 7 1011.1 1010.8 0.0
24/06:30am 24.0 26.6 20.1 79 2.5 SSE 6 7 3 4 1010.6 1010.3 0.0
24/06:00am 23.7 27.0 20.0 80 2.4 SSE 2 7 1 4 1010.2 1009.9 0.0
24/05:30am 23.8 26.4 20.1 80 2.4 S 6 9 3 5 1010.2 1009.9 0.0
24/05:00am 23.7 27.3 19.8 79 2.5 CALM 0 0 0 0 1009.9 1009.6 0.0
24/04:30am 23.9 27.5 19.8 78 2.6 CALM 0 0 0 0 1009.9 1009.6 0.0
24/04:00am 24.1 27.7 19.8 77 2.8 CALM 0 0 0 0 1010.0 1009.7 0.0
24/03:30am 24.3 28.0 20.0 77 2.8 CALM 0 0 0 0 1010.0 1009.7 0.0
24/03:00am 24.3 27.7 19.4 74 3.1 CALM 0 0 0 0 1010.0 1009.7 0.0
24/02:30am 24.4 27.6 18.8 71 3.6 CALM 0 0 0 0 1010.2 1009.9 0.0
24/02:00am 24.5 27.6 18.7 70 3.7 CALM 0 0 0 0 1010.2 1009.9 0.0
24/01:30am 24.9 27.8 18.3 66 4.2 CALM 0 0 0 0 1010.7 1010.4 0.0
24/01:00am 25.5 28.5 18.4 65 4.5 CALM 0 0 0 0 1011.2 1010.9 0.0
24/12:30am 25.9 28.8 18.1 62 4.9 CALM 0 2 0 1 1011.5 1011.2 0.0
24/12:00am 26.3 27.8 17.6 58 5.5 ESE 6 9 3 5 1012.1 1011.8 0.0
 
Date/Time
EST
Temp
°C
App
Temp
°C
Dew
Point
Rel
Hum
%
Delta-T
°C
Wind Press
QNH
hPa
Press
MSL
hPa
Rain
since 9 am
mm
Dir
 
Spd
km/h
Gust
km/h
Spd
kts
Gust
kts
23/11:30pm 26.8 28.8 17.0 55 6.1 ESE 2 9 1 5 1012.2 1011.9 0.0
23/11:00pm 27.5 28.7 16.8 52 6.7 E 6 9 3 5 1012.3 1012.0 0.0
23/10:30pm 28.1 28.7 16.7 50 7.1 ESE 9 13 5 7 1012.0 1011.7 0.0
23/10:00pm 28.7 29.2 16.6 48 7.6 ESE 9 17 5 9 1011.8 1011.5 0.0
23/09:30pm 29.4 29.2 16.6 46 8.0 E 13 20 7 11 1011.5 1011.2 0.0
23/09:00pm 29.9 30.2 18.0 48 7.6 E 13 20 7 11 1011.0 1010.7 0.0
23/08:30pm 30.4 31.5 18.8 50 7.5 ESE 11 17 6 9 1010.6 1010.3 0.0
23/08:00pm 30.8 31.9 18.8 48 7.8 E 11 20 6 11 1010.4 1010.1 0.0
23/07:30pm 30.4 34.0 21.2 58 6.2 SW 4 7 2 4 1009.8 1009.5 0.0
23/07:00pm 30.6 34.3 21.4 58 6.2 WSW 4 15 2 8 1009.2 1008.9 0.0
23/06:30pm 31.4 33.5 21.0 54 7.0 WSW 11 17 6 9 1008.8 1008.5 0.0
23/06:00pm 32.4 34.3 20.6 49 7.9 W 11 17 6 9 1008.3 1008.0 0.0
23/05:30pm 32.6 34.2 20.8 49 7.9 W 13 20 7 11 1007.8 1007.5 0.0
23/05:00pm 34.0 36.2 21.1 47 8.7 W 11 17 6 9 1007.5 1007.2 0.0
23/04:30pm 36.2 35.8 15.3 28 13.1 ENE 11 24 6 13 1007.0 1006.7 0.0
23/04:00pm 36.6 36.0 14.6 27 13.7 ENE 11 20 6 11 1007.0 1006.7 0.0
23/03:30pm 37.8 37.7 15.0 26 14.3 ESE 9 15 5 8 1007.4 1007.1 0.0
23/03:00pm 36.9 35.2 14.8 26 13.9 SSE 17 26 9 14 1007.7 1007.4 0.0
23/02:30pm 36.1 35.7 15.2 28 13.1 E 11 24 6 13 1008.2 1007.9 0.0
23/02:00pm 36.2 35.7 15.9 30 12.9 SSE 13 28 7 15 1008.7 1008.4 0.0
23/01:30pm 35.6 34.9 16.4 32 12.2 SE 15 24 8 13 1009.2 1008.9 0.0
23/01:00pm 35.6 37.0 17.3 33 11.8 SE 6 13 3 7 1009.8 1009.5 0.0
23/12:30pm 34.1 34.1 17.3 36 10.8 ENE 13 22 7 12 1010.6 1010.3 0.0
23/12:00pm 34.4 34.5 18.4 38 10.4 ENE 15 26 8 14 1011.1 1010.8 0.0
23/11:30am 32.3 33.6 18.5 44 9.0 E 9 24 5 13 1011.7 1011.4 0.0
23/11:00am 33.1 33.0 18.8 42 9.3 ESE 17 20 9 11 1012.2 1011.9 0.0
23/10:30am 31.6 31.3 19.2 47 8.1 ENE 19 26 10 14 1012.6 1012.3 0.0
23/10:00am 31.0 31.3 19.7 51 7.4 ESE 17 28 9 15 1013.1 1012.8 0.0
23/09:30am 30.3 31.8 20.5 55 6.5 E 13 24 7 13 1013.2 1012.9 0.0
23/09:00am 29.1 30.5 20.3 59 5.8 ESE 13 20 7 11 1013.3 1013.0 0.0
23/08:30am 28.4 30.2 20.4 62 5.3 ESE 11 17 6 9 1013.5 1013.2 0.0
23/08:00am 27.7 29.2 20.5 65 4.7 SE 13 20 7 11 1013.6 1013.3 0.0
23/07:30am 27.1 29.2 20.9 69 4.1 SE 11 15 6 8 1013.4 1013.1 0.0
23/07:00am 26.1 29.0 20.7 72 3.6 SE 6 9 3 5 1012.9 1012.6 0.0
23/06:30am 25.0 28.7 20.7 77 2.8 SSE 2 7 1 4 1012.4 1012.1 0.0
23/06:00am 24.7 28.7 20.6 78 2.7 CALM 0 4 0 2 1012.1 1011.8 0.0
23/05:30am 24.5 27.3 20.4 78 2.7 ESE 6 9 3 5 1011.6 1011.3 0.0
23/05:00am 24.3 28.2 20.4 79 2.5 CALM 0 0 0 0 1011.3 1011.0 0.0
23/04:30am 24.0 27.9 20.3 80 2.4 CALM 0 0 0 0 1011.3 1011.0 0.0
23/04:00am 24.1 27.9 20.2 79 2.5 CALM 0 0 0 0 1011.2 1010.9 0.0
23/03:30am 24.1 27.8 20.0 78 2.7 CALM 0 0 0 0 1011.3 1011.0 0.0
23/03:00am 24.3 28.0 20.0 77 2.8 CALM 0 0 0 0 1011.2 1010.9 0.0
23/02:30am 24.5 28.2 20.0 76 2.9 CALM 0 0 0 0 1011.1 1010.8 0.0
23/02:00am 24.9 27.6 20.2 75 3.1 SE 6 9 3 5 1011.1 1010.8 0.0
23/01:30am 25.3 28.7 20.1 73 3.4 ESE 2 7 1 4 1011.1 1010.8 0.0
23/01:00am 25.7 29.2 20.3 72 3.5 E 2 7 1 4 1011.5 1011.2 0.0
23/12:30am 26.3 30.2 20.4 70 3.9 CALM 0 0 0 0 1011.6 1011.3 0.0
23/12:00am 26.7 29.4 20.3 68 4.2 ENE 6 9 3 5 1011.6 1011.3 0.0
 
Date/Time
EST
Temp
°C
App
Temp
°C
Dew
Point
Rel
Hum
%
Delta-T
°C
Wind Press
QNH
hPa
Press
MSL
hPa
Rain
since 9 am
mm
Dir
 
Spd
km/h
Gust
km/h
Spd
kts
Gust
kts
22/11:30pm 27.1 29.8 20.7 68 4.2 NE 7 13 4 7 1011.9 1011.6 0.0
22/11:00pm 27.3 30.1 20.9 68 4.2 NE 7 11 4 6 1011.8 1011.5 0.0
22/10:30pm 27.3 30.9 21.3 69 4.0 N 4 7 2 4 1011.7 1011.4 0.0
22/10:00pm 27.2 31.5 21.2 69 4.0 CALM 0 0 0 0 1011.5 1011.2 0.0
22/09:30pm 27.8 32.2 21.3 67 4.3 CALM 0 0 0 0 1011.5 1011.2 0.0
22/09:00pm 27.9 32.1 21.0 66 4.6 CALM 0 0 0 0 1011.3 1011.0 0.0
22/08:30pm 28.2 32.4 21.0 65 4.8 CALM 0 7 0 4 1011.0 1010.7 0.0
22/08:00pm 28.6 32.5 21.1 64 5.0 WNW 2 9 1 5 1010.6 1010.3 0.0
22/07:30pm 29.0 32.6 21.2 62 5.2 WNW 4 9 2 5 1010.1 1009.8 0.0
22/07:00pm 29.3 32.0 20.7 59 5.7 WNW 7 13 4 7 1009.5 1009.2 0.0
22/06:30pm 29.9 31.5 20.7 57 6.1 W 13 20 7 11 1009.1 1008.8 0.0
22/06:00pm 31.1 32.8 21.0 55 6.8 W 13 17 7 9 1008.6 1008.3 0.0
22/05:30pm 31.6 32.5 20.8 52 7.2 W 17 24 9 13 1008.1 1007.8 0.0
22/05:00pm 33.7 34.8 19.7 43 9.3 NNW 13 20 7 11 1007.7 1007.4 0.0
22/04:30pm 37.1 35.8 13.8 25 14.4 E 13 24 7 13 1007.4 1007.1 0.0
22/04:00pm 37.8 36.7 14.4 25 14.6 ESE 13 20 7 11 1007.3 1007.0 0.0
22/03:30pm 37.9 36.3 13.8 23 14.9 E 15 26 8 14 1007.4 1007.1 0.0
22/03:00pm 37.4 35.4 14.0 24 14.5 E 17 28 9 15 1007.9 1007.6 0.0
22/02:30pm 37.5 37.0 15.9 28 13.7 ENE 13 26 7 14 1008.1 1007.8 0.0
22/02:00pm 36.9 35.6 15.9 28 13.4 E 17 22 9 12 1008.4 1008.1 0.0
22/01:30pm 36.4 35.9 16.0 29 13.0 E 13 24 7 13 1008.9 1008.6 0.0
22/01:00pm 35.9 35.8 16.1 30 12.6 E 11 20 6 11 1009.5 1009.2 0.0
22/12:30pm 35.1 34.6 15.9 31 12.1 ESE 13 20 7 11 1010.0 1009.7 0.0
22/12:00pm 33.8 33.9 17.5 38 10.5 ENE 13 24 7 13 1010.6 1010.3 0.0
22/11:30am 33.6 34.2 18.5 40 9.8 E 13 26 7 14 1011.0 1010.7 0.0
22/11:00am 33.1 35.1 19.9 45 8.8 ENE 9 19 5 10 1011.5 1011.2 0.0
22/10:30am 31.2 31.7 19.2 48 7.8 E 15 17 8 9 1011.9 1011.6 0.0
22/10:00am 29.8 30.3 19.2 53 6.9 SE 15 26 8 14 1012.2 1011.9 0.0
22/09:30am 29.3 29.6 19.6 56 6.3 SE 17 26 9 14 1012.4 1012.1 0.0
22/09:00am 28.3 28.5 20.1 61 5.4 E 19 26 10 14 1012.5 1012.2 0.0
22/08:30am 27.8 29.3 20.6 65 4.8 SE 13 24 7 13 1012.5 1012.2 0.0
22/08:00am 26.3 28.5 20.4 70 3.9 SE 9 15 5 8 1012.5 1012.2 0.0
22/07:30am 25.6 27.5 20.6 74 3.3 SSE 11 17 6 9 1012.4 1012.1 0.0
22/07:00am 24.3 26.0 20.2 78 2.7 SSE 11 19 6 10 1012.6 1012.3 0.0
22/06:30am 23.3 25.1 20.4 84 1.9 S 11 13 6 7 1012.2 1011.9 0.0
22/06:00am 23.0 25.2 20.3 85 1.7 S 9 11 5 6 1011.9 1011.6 0.0
22/05:30am 23.0 25.7 20.3 85 1.7 SE 6 7 3 4 1011.4 1011.1 0.0
22/05:00am 23.1 25.2 20.2 84 1.9 SSE 9 11 5 6 1011.0 1010.7 0.0
22/04:30am 23.3 26.0 20.2 83 2.0 SSE 6 9 3 5 1010.5 1010.2 0.0
22/04:00am 23.5 27.3 20.2 82 2.1 CALM 0 0 0 0 1009.9 1009.6 0.0
22/03:30am 23.7 25.8 20.2 81 2.3 SSE 9 11 5 6 1009.9 1009.6 0.0
22/03:00am 23.9 26.6 20.2 80 2.4 SE 6 7 3 4 1009.8 1009.5 0.0
22/02:30am 24.2 26.7 20.3 79 2.5 SE 7 9 4 5 1010.1 1009.8 0.0
22/02:00am 24.5 27.2 20.2 77 2.8 SE 6 7 3 4 1010.4 1010.1 0.0
22/01:30am 25.0 27.5 20.3 75 3.1 SSE 7 11 4 6 1010.6 1010.3 0.0
22/01:00am 25.3 27.7 20.1 73 3.4 SSE 7 9 4 5 1010.7 1010.4 0.0
22/12:30am 25.7 28.3 20.0 71 3.7 SE 6 7 3 4 1011.0 1010.7 0.0
22/12:00am 26.2 28.6 20.1 69 4.0 E 7 11 4 6 1011.2 1010.9 0.0
 
Date/Time
EST
Temp
°C
App
Temp
°C
Dew
Point
Rel
Hum
%
Delta-T
°C
Wind Press
QNH
hPa
Press
MSL
hPa
Rain
since 9 am
mm
Dir
 
Spd
km/h
Gust
km/h
Spd
kts
Gust
kts
21/11:30pm 26.6 28.5 19.7 66 4.5 ESE 9 15 5 8 1011.6 1011.3 0.0
21/11:00pm 27.0 28.8 19.6 64 4.8 E 9 15 5 8 1011.7 1011.4 0.0
21/10:30pm 27.6 29.2 19.9 63 5.0 ENE 11 19 6 10 1011.7 1011.4 0.0
21/10:00pm 27.9 29.9 19.9 61 5.2 E 9 19 5 10 1011.8 1011.5 0.0
21/09:30pm 28.5 30.4 19.7 59 5.7 ENE 9 19 5 10 1011.4 1011.1 0.0
21/09:00pm 29.3 30.2 19.3 55 6.5 E 13 20 7 11 1011.0 1010.7 0.0
21/08:30pm 30.4 30.6 16.8 44 8.6 E 11 19 6 10 1010.5 1010.2 0.0
21/08:00pm 31.4 30.4 14.5 35 10.3 E 13 24 7 13 1009.9 1009.6 0.0
21/07:30pm 32.2 31.7 13.9 33 11.1 ESE 9 15 5 8 1009.5 1009.2 0.0
21/07:00pm 33.0 32.4 13.6 31 11.8 E 9 17 5 9 1009.0 1008.7 0.0
21/06:30pm 33.9 32.3 13.9 30 12.2 E 15 24 8 13 1008.4 1008.1 0.0
21/06:00pm 34.8 33.6 14.1 28 12.8 E 13 28 7 15 1008.0 1007.7 0.0
21/05:30pm 35.5 33.6 14.2 28 13.2 E 17 28 9 15 1007.7 1007.4 0.0
21/05:00pm 36.1 35.1 14.7 28 13.4 E 13 26 7 14 1007.4 1007.1 0.0
21/04:30pm 36.3 35.3 16.5 31 12.7 E 17 35 9 19 1007.3 1007.0 0.0
21/04:00pm 36.7 36.2 16.8 30 12.8 E 15 24 8 13 1007.2 1006.9 0.0
21/03:30pm 36.5 34.9 16.6 30 12.7 E 20 35 11 19 1007.5 1007.2 0.0
21/03:00pm 36.9 36.3 17.5 32 12.6 E 17 32 9 17 1007.6 1007.3 0.0
21/02:30pm 36.4 35.8 17.5 32 12.3 E 17 32 9 17 1008.0 1007.7 0.0
21/02:00pm 37.2 36.3 18.2 32 12.5 ESE 20 33 11 18 1008.4 1008.1 0.0
21/01:30pm 36.2 36.3 18.3 34 11.7 E 15 32 8 17 1008.8 1008.5 0.0
21/01:00pm 35.5 34.0 18.6 37 11.1 ESE 24 37 13 20 1009.3 1009.0 0.0
21/12:30pm 35.6 36.0 19.9 39 10.5 E 17 33 9 18 1009.9 1009.6 0.0
21/12:00pm 35.0 36.1 20.5 42 9.8 ENE 15 28 8 15 1010.4 1010.1 0.0
21/11:30am 34.1 34.1 20.1 43 9.3 E 20 35 11 19 1010.9 1010.6 0.0
21/11:00am 33.4 32.8 19.8 44 9.0 ESE 22 35 12 19 1011.4 1011.1 0.0

Other Formats:

Comma delimited format used in spreadsheet applications
http://www.bom.gov.au/fwo/IDQ60801/IDQ60801.94171.axf

JavaScript Object Notation format (JSON) in row-major order
http://www.bom.gov.au/fwo/IDQ60801/IDQ60801.94171.json